Aviation Digital Data Service (ADDS)

Output produced by TAFs form (1431 UTC 05 December 2016)
found at http://aviationweather.gov/adds/tafs/
 
KLND 051202Z 0512/0612 30013G23KT P6SM VCSH SCT035 BKN060 
     FM051500 30014G24KT P6SM SCT050 BKN080 
     FM060000 24007KT P6SM SKC